Time;durP1;ratioP1;P1;durP2;ratioP2;P2;SDS_P1;SDS_P2;PMS_P1;PMS_P2;Temp;Humidity;BMP_temperature;BMP_pressure;BME280_temperature;BME280_humidity;BME280_pressure;Samples;Min_cycle;Max_cycle;Signal;HPM_P1;HPM_P2
2023/01/21 00:01:14;;;;;;;8.60;7.37;;;1.50;31.50;;;;;;5054332;28;20443;-36
2023/01/21 00:03:40;;;;;;;9.80;8.00;;;1.50;33.30;;;;;;5053124;28;20989;-37
2023/01/21 00:06:07;;;;;;;10.10;7.83;;;1.40;37.00;;;;;;5053475;28;20858;-37
2023/01/21 00:08:32;;;;;;;8.67;7.87;;;1.40;51.20;;;;;;5052143;28;20439;-38
2023/01/21 00:11:09;;;;;;;8.47;7.43;;;1.40;48.50;;;;;;5053150;28;20435;-37
2023/01/21 00:13:35;;;;;;;8.03;7.30;;;1.30;59.50;;;;;;5053374;28;20189;-37
2023/01/21 00:16:02;;;;;;;8.27;7.50;;;1.30;75.60;;;;;;5055531;28;20412;-37
2023/01/21 00:18:27;;;;;;;10.90;8.07;;;1.30;91.00;;;;;;5056007;28;20480;-37
2023/01/21 00:20:53;;;;;;;10.27;7.93;;;1.30;99.90;;;;;;5055617;28;20515;-37
2023/01/21 00:23:18;;;;;;;9.23;8.23;;;1.30;99.90;;;;;;5054219;28;20228;-37
2023/01/21 00:25:44;;;;;;;9.30;8.37;;;1.30;99.90;;;;;;5057627;28;20204;-37
2023/01/21 00:28:10;;;;;;;10.67;8.47;;;1.30;99.90;;;;;;5058621;28;20182;-36
2023/01/21 00:30:35;;;;;;;10.23;8.80;;;1.20;99.90;;;;;;5056850;28;20249;-43
2023/01/21 00:33:02;;;;;;;10.20;7.57;;;1.20;99.90;;;;;;5059888;28;20186;-37
2023/01/21 00:35:27;;;;;;;11.17;8.23;;;1.20;99.90;;;;;;5060224;28;20185;-38
2023/01/21 00:37:53;;;;;;;8.60;7.60;;;1.20;99.90;;;;;;5059302;28;20428;-36
2023/01/21 00:40:19;;;;;;;13.20;9.20;;;1.20;99.90;;;;;;5057195;28;20231;-37
2023/01/21 00:42:45;;;;;;;11.13;9.30;;;1.20;99.90;;;;;;5057105;28;20326;-37
2023/01/21 00:45:10;;;;;;;10.47;8.80;;;1.20;99.90;;;;;;5057798;28;20485;-37
2023/01/21 00:47:36;;;;;;;12.10;9.57;;;1.20;99.90;;;;;;5057289;28;20627;-37
2023/01/21 00:50:02;;;;;;;11.90;9.57;;;1.20;99.90;;;;;;5056092;28;20185;-37
2023/01/21 00:52:28;;;;;;;9.73;8.70;;;1.10;99.90;;;;;;5056343;28;20247;-37
2023/01/21 00:54:54;;;;;;;11.17;9.50;;;1.10;99.90;;;;;;5056748;28;20428;-36
2023/01/21 00:57:19;;;;;;;12.27;9.23;;;1.10;99.90;;;;;;5059312;28;20523;-36
2023/01/21 00:59:45;;;;;;;12.60;9.93;;;1.10;99.90;;;;;;5059217;28;20242;-35
2023/01/21 01:02:11;;;;;;;10.50;9.40;;;1.10;99.90;;;;;;5059346;28;20605;-36
2023/01/21 01:04:36;;;;;;;11.13;10.00;;;1.10;99.90;;;;;;5059278;28;20489;-36
2023/01/21 01:07:02;;;;;;;12.93;10.30;;;1.00;99.90;;;;;;5059101;28;20182;-37
2023/01/21 01:09:28;;;;;;;13.40;10.40;;;1.00;99.90;;;;;;5058924;28;20185;-37
2023/01/21 01:11:54;;;;;;;12.27;10.80;;;1.00;99.90;;;;;;5058626;28;20836;-37
2023/01/21 01:14:20;;;;;;;13.30;11.80;;;0.90;99.90;;;;;;5056992;28;20170;-36
2023/01/21 01:16:45;;;;;;;10.97;9.63;;;0.90;99.90;;;;;;5058690;28;20565;-36
2023/01/21 01:19:11;;;;;;;12.67;9.90;;;0.80;99.90;;;;;;5057150;28;20575;-37
2023/01/21 01:21:37;;;;;;;11.00;8.70;;;0.80;99.90;;;;;;5057502;28;20213;-37
2023/01/21 01:24:04;;;;;;;13.97;9.83;;;0.80;99.90;;;;;;5056152;28;20465;-37
2023/01/21 01:26:30;;;;;;;9.63;8.63;;;0.70;99.90;;;;;;5057315;28;20174;-37
2023/01/21 01:28:56;;;;;;;10.27;8.80;;;0.70;99.90;;;;;;5057281;28;20408;-37
2023/01/21 01:31:22;;;;;;;9.03;8.10;;;0.70;99.90;;;;;;5056413;28;20417;-37
2023/01/21 01:33:47;;;;;;;10.57;8.90;;;0.70;99.90;;;;;;5055755;28;20569;-36
2023/01/21 01:36:19;;;;;;;10.53;8.90;;;0.70;99.90;;;;;;5054559;28;20189;-36
2023/01/21 01:38:45;;;;;;;10.90;8.20;;;0.70;99.90;;;;;;5055825;28;20224;-37
2023/01/21 01:41:19;;;;;;;10.93;7.83;;;0.70;99.90;;;;;;5054807;28;20482;-37
2023/01/21 01:43:59;;;;;;;9.50;7.80;;;0.70;99.90;;;;;;5055604;28;20510;-36
2023/01/21 01:46:34;;;;;;;8.47;7.57;;;0.70;99.90;;;;;;5057283;28;20489;-37
2023/01/21 01:49:05;;;;;;;9.37;8.00;;;0.70;99.90;;;;;;5057008;28;20420;-36
2023/01/21 01:51:50;;;;;;;8.07;6.40;;;0.70;99.90;;;;;;5056525;28;20416;-37
2023/01/21 01:54:41;;;;;;;8.30;7.50;;;0.70;99.90;;;;;;5056374;28;20419;-39
2023/01/21 01:57:09;;;;;;;9.20;7.37;;;0.70;99.90;;;;;;5054763;28;20439;-38
2023/01/21 01:59:35;;;;;;;8.23;7.40;;;0.70;99.90;;;;;;5056048;28;20685;-36
2023/01/21 02:02:09;;;;;;;8.53;7.03;;;0.70;99.90;;;;;;5055325;28;20529;-42
2023/01/21 02:04:53;;;;;;;9.07;7.57;;;0.60;99.90;;;;;;5054991;28;20419;-44
2023/01/21 02:07:20;;;;;;;10.90;7.70;;;0.60;99.90;;;;;;5052901;28;20432;-37
2023/01/21 02:09:45;;;;;;;9.40;7.50;;;0.60;99.90;;;;;;5051975;28;20431;-37
2023/01/21 02:12:11;;;;;;;8.50;7.50;;;0.60;99.90;;;;;;5054349;28;20432;-37
2023/01/21 02:14:41;;;;;;;8.87;7.97;;;0.60;99.90;;;;;;5054366;28;20209;-37
2023/01/21 02:17:37;;;;;;;8.40;7.50;;;0.50;99.90;;;;;;5055937;28;20208;-37
2023/01/21 02:20:35;;;;;;;8.50;7.60;;;0.50;99.90;;;;;;5056363;28;20495;-36
2023/01/21 02:23:04;;;;;;;8.80;7.90;;;0.50;99.90;;;;;;5054614;28;20468;-37
2023/01/21 02:26:04;;;;;;;8.13;7.30;;;0.40;99.90;;;;;;5056338;28;20408;-36
2023/01/21 02:29:07;;;;;;;8.03;7.07;;;0.40;99.90;;;;;;5057783;28;20898;-36
2023/01/21 02:31:41;;;;;;;8.80;7.73;;;0.30;99.90;;;;;;5057723;28;20758;-37
2023/01/21 02:34:13;;;;;;;9.50;7.10;;;0.30;99.90;;;;;;5056904;28;20404;-37
2023/01/21 02:37:12;;;;;;;8.00;7.20;;;0.20;99.90;;;;;;5056638;28;20439;-37
2023/01/21 02:40:13;;;;;;;7.60;6.80;;;0.10;99.90;;;;;;5054859;28;20943;-37
2023/01/21 02:42:49;;;;;;;9.23;7.17;;;0.10;99.90;;;;;;5054479;28;20474;-37
2023/01/21 02:45:37;;;;;;;8.60;7.00;;;0.10;99.90;;;;;;5055738;28;20408;-39
2023/01/21 02:48:22;;;;;;;7.97;7.27;;;0.00;99.90;;;;;;5055930;28;20424;-36
2023/01/21 02:50:52;;;;;;;9.63;7.17;;;0.00;99.90;;;;;;5056152;28;20411;-37
2023/01/21 02:53:26;;;;;;;9.97;8.40;;;-0.10;99.90;;;;;;5055491;28;20569;-37
2023/01/21 02:55:52;;;;;;;11.23;8.33;;;-0.10;99.90;;;;;;5055433;28;20444;-37
2023/01/21 02:58:21;;;;;;;13.93;9.60;;;-0.20;99.90;;;;;;5056148;28;20479;-37
2023/01/21 03:01:14;;;;;;;11.70;9.23;;;-0.30;99.90;;;;;;5057228;28;20424;-36
2023/01/21 03:03:59;;;;;;;10.73;8.10;;;-0.30;99.90;;;;;;5059523;28;20455;-37
2023/01/21 03:06:50;;;;;;;11.80;8.17;;;-0.30;99.90;;;;;;5057880;28;20411;-37
2023/01/21 03:09:20;;;;;;;8.27;7.47;;;-0.30;99.90;;;;;;5059335;28;20673;-36
2023/01/21 03:12:07;;;;;;;7.87;7.07;;;-0.40;99.90;;;;;;5055695;28;20423;-37
2023/01/21 03:17:35;;;;;;;9.00;7.07;;;-0.50;99.90;;;;;;5054312;28;20472;-37
2023/01/21 03:20:33;;;;;;;9.60;7.57;;;-0.50;99.90;;;;;;5052311;28;20549;-37
2023/01/21 03:23:05;;;;;;;8.10;6.50;;;-0.60;99.90;;;;;;5055188;28;20468;-37
2023/01/21 03:25:33;;;;;;;10.07;6.70;;;-0.70;99.90;;;;;;5055328;28;20768;-36
2023/01/21 03:28:01;;;;;;;10.10;7.40;;;-0.70;99.90;;;;;;5058145;28;20420;-37
2023/01/21 03:30:28;;;;;;;8.00;7.20;;;-0.70;99.90;;;;;;5061241;28;20499;-37
2023/01/21 03:32:54;;;;;;;7.37;6.67;;;-0.80;99.90;;;;;;5060482;28;20432;-37
2023/01/21 03:35:24;;;;;;;8.93;7.00;;;-0.80;99.90;;;;;;5059632;28;20416;-35
2023/01/21 03:38:09;;;;;;;10.10;6.97;;;-0.90;99.90;;;;;;5058880;28;20443;-37
2023/01/21 03:40:43;;;;;;;8.07;6.80;;;-0.90;99.90;;;;;;5055673;28;20446;-37
2023/01/21 03:43:09;;;;;;;9.20;6.87;;;-1.00;99.90;;;;;;5055882;28;20633;-37
2023/01/21 03:45:41;;;;;;;8.03;6.90;;;-1.00;99.90;;;;;;5055974;28;20858;-37
2023/01/21 03:48:19;;;;;;;9.10;7.40;;;-1.00;99.90;;;;;;5054622;28;20527;-37
2023/01/21 03:50:52;;;;;;;6.90;6.17;;;-1.00;99.90;;;;;;5054983;28;20474;-36
2023/01/21 03:53:18;;;;;;;9.60;7.57;;;-1.10;99.90;;;;;;5055791;28;20431;-36
2023/01/21 03:55:43;;;;;;;8.40;6.57;;;-1.10;99.90;;;;;;5056010;28;20420;-37
2023/01/21 03:58:09;;;;;;;6.40;5.80;;;-1.10;99.90;;;;;;5056648;28;20462;-37
2023/01/21 04:00:35;;;;;;;9.83;6.83;;;-1.20;99.90;;;;;;5060188;28;20584;-36
2023/01/21 04:03:00;;;;;;;7.17;6.10;;;-1.20;99.90;;;;;;5059421;28;20232;-35
2023/01/21 04:05:27;;;;;;;7.80;6.60;;;-1.20;99.90;;;;;;5060025;28;20182;-37
2023/01/21 04:07:53;;;;;;;8.43;7.40;;;-1.30;99.90;;;;;;5059542;28;20218;-35
2023/01/21 04:10:18;;;;;;;6.90;6.00;;;-1.30;99.90;;;;;;5058945;28;20447;-36
2023/01/21 04:12:44;;;;;;;9.00;6.60;;;-1.30;99.90;;;;;;5059406;28;20198;-36
2023/01/21 04:15:10;;;;;;;7.90;7.10;;;-1.30;99.90;;;;;;5060293;28;20193;-36
2023/01/21 04:17:36;;;;;;;9.70;6.93;;;-1.30;99.90;;;;;;5060034;28;20224;-36
2023/01/21 04:20:01;;;;;;;8.27;6.40;;;-1.40;99.90;;;;;;5060245;28;20515;-37
2023/01/21 04:22:27;;;;;;;8.53;7.57;;;-1.40;99.90;;;;;;5059952;28;20217;-36
2023/01/21 04:24:52;;;;;;;8.13;6.80;;;-1.40;99.90;;;;;;5059500;28;20174;-37
2023/01/21 04:27:18;;;;;;;8.63;7.20;;;-1.40;99.90;;;;;;5059687;28;20186;-41
2023/01/21 04:29:44;;;;;;;7.80;6.93;;;-1.40;99.90;;;;;;5058973;28;20169;-36
2023/01/21 04:32:09;;;;;;;9.13;7.00;;;-1.40;99.90;;;;;;5058385;28;20213;-36
2023/01/21 04:34:35;;;;;;;8.80;7.50;;;-1.50;99.90;;;;;;5059192;28;20208;-37
2023/01/21 04:37:00;;;;;;;10.57;7.40;;;-1.50;99.90;;;;;;5059582;28;20193;-36
2023/01/21 04:39:26;;;;;;;7.80;6.90;;;-1.50;99.90;;;;;;5058529;28;20225;-37
2023/01/21 04:41:52;;;;;;;12.07;7.53;;;-1.40;99.90;;;;;;5059603;28;20336;-37
2023/01/21 04:44:17;;;;;;;11.20;7.13;;;-1.50;99.90;;;;;;5059370;28;20570;-37
2023/01/21 04:46:43;;;;;;;11.20;7.83;;;-1.60;99.90;;;;;;5059083;28;20251;-36
2023/01/21 04:49:08;;;;;;;8.73;7.20;;;-1.60;99.90;;;;;;5059796;28;20182;-38
2023/01/21 04:51:34;;;;;;;7.57;6.67;;;-1.60;99.90;;;;;;5058846;28;20327;-36
2023/01/21 04:54:00;;;;;;;8.87;7.73;;;-1.60;99.90;;;;;;5059849;28;20189;-36
2023/01/21 04:56:25;;;;;;;11.10;7.33;;;-1.60;99.90;;;;;;5059564;28;20239;-37
2023/01/21 04:58:51;;;;;;;9.00;7.13;;;-1.70;99.90;;;;;;5059362;28;20185;-36
2023/01/21 05:01:16;;;;;;;7.93;6.90;;;-1.70;99.90;;;;;;5058028;28;20181;-36
2023/01/21 05:03:42;;;;;;;9.30;7.50;;;-1.70;99.90;;;;;;5058220;28;20177;-36
2023/01/21 05:06:08;;;;;;;11.07;7.53;;;-1.70;99.90;;;;;;5058753;28;20180;-36
2023/01/21 05:08:33;;;;;;;7.97;7.27;;;-1.70;99.90;;;;;;5055256;28;20195;-37
2023/01/21 05:10:59;;;;;;;9.17;6.97;;;-1.70;99.90;;;;;;5058982;28;20208;-36
2023/01/21 05:13:25;;;;;;;10.33;7.67;;;-1.70;99.90;;;;;;5058228;28;20276;-37
2023/01/21 05:15:50;;;;;;;10.00;7.07;;;-1.80;99.90;;;;;;5057143;28;20269;-37
2023/01/21 05:18:16;;;;;;;9.40;7.10;;;-1.80;99.90;;;;;;5058685;28;20189;-36
2023/01/21 05:20:41;;;;;;;7.27;6.33;;;-1.80;99.90;;;;;;5059035;28;20523;-37
2023/01/21 05:23:07;;;;;;;10.60;7.33;;;-1.80;99.90;;;;;;5058196;28;20274;-39
2023/01/21 05:25:33;;;;;;;7.17;6.47;;;-1.80;99.90;;;;;;5059136;28;20185;-37
2023/01/21 05:27:58;;;;;;;8.07;7.30;;;-1.80;99.90;;;;;;5058758;28;20603;-36
2023/01/21 05:30:24;;;;;;;8.40;7.53;;;-1.80;99.90;;;;;;5058444;28;20672;-35
2023/01/21 05:32:53;;;;;;;7.77;6.87;;;-1.90;99.90;;;;;;5057808;28;20477;-37
2023/01/21 05:35:20;;;;;;;8.33;7.30;;;-1.90;99.90;;;;;;5057463;28;20190;-36
2023/01/21 05:37:46;;;;;;;8.27;7.43;;;-1.90;99.90;;;;;;5057689;28;20850;-37
2023/01/21 05:40:14;;;;;;;9.20;7.70;;;-1.90;99.90;;;;;;5057485;28;20427;-36
2023/01/21 05:42:39;;;;;;;8.53;7.10;;;-2.00;99.90;;;;;;5057339;28;20506;-37
2023/01/21 05:45:05;;;;;;;9.67;7.70;;;-2.00;99.90;;;;;;5057590;28;20443;-37
2023/01/21 05:47:31;;;;;;;11.10;7.83;;;-2.00;99.90;;;;;;5057096;28;20186;-37
2023/01/21 05:49:57;;;;;;;13.10;7.67;;;-2.00;99.90;;;;;;5056690;28;20511;-36
2023/01/21 05:52:22;;;;;;;9.90;7.10;;;-2.00;99.90;;;;;;5057570;28;20209;-36
2023/01/21 05:54:48;;;;;;;9.63;7.83;;;-2.10;99.90;;;;;;5057822;28;20174;-36
2023/01/21 05:57:14;;;;;;;8.20;7.30;;;-2.10;99.90;;;;;;5056898;28;20254;-36
2023/01/21 05:59:39;;;;;;;8.60;7.50;;;-2.10;99.90;;;;;;5056866;28;20247;-35
2023/01/21 06:02:05;;;;;;;11.73;8.20;;;-2.20;99.90;;;;;;5056781;28;20470;-36
2023/01/21 06:04:30;;;;;;;12.63;8.40;;;-2.20;99.90;;;;;;5054315;28;20656;-36
2023/01/21 06:06:56;;;;;;;10.63;7.33;;;-2.20;99.90;;;;;;5055515;28;20477;-36
2023/01/21 06:09:22;;;;;;;8.67;6.87;;;-2.20;99.90;;;;;;5055988;28;20561;-36
2023/01/21 06:11:48;;;;;;;8.67;7.47;;;-2.30;99.90;;;;;;5056103;28;20439;-36
2023/01/21 06:14:13;;;;;;;9.47;7.40;;;-2.30;99.90;;;;;;5056625;28;20177;-36
2023/01/21 06:16:39;;;;;;;10.83;8.30;;;-2.30;99.90;;;;;;5056983;28;20189;-36
2023/01/21 06:19:04;;;;;;;10.37;7.97;;;-2.20;99.90;;;;;;5057996;28;20244;-37
2023/01/21 06:21:30;;;;;;;9.17;7.73;;;-2.30;99.90;;;;;;5057735;28;20443;-37
2023/01/21 06:23:56;;;;;;;8.60;7.70;;;-2.30;99.90;;;;;;5057963;28;20236;-36
2023/01/21 06:26:22;;;;;;;9.47;7.63;;;-2.30;99.90;;;;;;5056072;28;20184;-36
2023/01/21 06:28:48;;;;;;;11.27;7.60;;;-2.30;99.90;;;;;;5056350;28;20451;-36
2023/01/21 06:31:13;;;;;;;8.47;7.57;;;-2.30;99.90;;;;;;5056483;28;20439;-36
2023/01/21 06:33:39;;;;;;;12.33;9.10;;;-2.30;99.90;;;;;;5054232;28;20495;-35
2023/01/21 06:36:05;;;;;;;11.50;8.90;;;-2.30;99.90;;;;;;5053903;28;20174;-36
2023/01/21 06:38:34;;;;;;;9.40;7.60;;;-2.30;99.90;;;;;;5054913;28;20170;-36
2023/01/21 06:41:01;;;;;;;12.70;9.07;;;-2.30;99.90;;;;;;5054413;28;20742;-36
2023/01/21 06:43:27;;;;;;;10.67;9.40;;;-2.30;99.90;;;;;;5054200;28;20464;-36
2023/01/21 06:45:52;;;;;;;10.20;9.20;;;-2.30;99.90;;;;;;5054455;28;20693;-37
2023/01/21 06:48:18;;;;;;;11.70;9.63;;;-2.30;99.90;;;;;;5053842;28;20265;-36
2023/01/21 06:50:44;;;;;;;14.17;10.50;;;-2.30;99.90;;;;;;5056764;28;20219;-37
2023/01/21 06:53:09;;;;;;;10.70;9.40;;;-2.20;99.90;;;;;;5056916;28;20424;-37
2023/01/21 06:55:35;;;;;;;13.10;9.40;;;-2.20;99.90;;;;;;5055752;28;20461;-37
2023/01/21 06:58:01;;;;;;;11.47;10.23;;;-2.20;99.90;;;;;;5055215;28;20178;-36
2023/01/21 07:00:27;;;;;;;12.63;11.33;;;-2.20;99.90;;;;;;5053782;28;20197;-36
2023/01/21 07:02:59;;;;;;;13.83;10.60;;;-2.10;99.90;;;;;;5053862;28;20270;-36
2023/01/21 07:05:25;;;;;;;13.20;10.23;;;-2.10;99.90;;;;;;5052838;28;20181;-36
2023/01/21 07:07:54;;;;;;;20.70;12.03;;;-2.00;99.90;;;;;;5053625;28;20719;-37
2023/01/21 07:10:20;;;;;;;14.40;12.30;;;-2.00;1.00;;;;;;5054122;28;20408;-36
2023/01/21 07:12:46;;;;;;;31.60;25.67;;;-1.90;1.00;;;;;;5056281;28;20439;-37
2023/01/21 07:15:11;;;;;;;33.43;28.37;;;-1.80;1.00;;;;;;5054880;28;20479;-36
2023/01/21 07:17:37;;;;;;;34.70;27.10;;;-1.70;1.00;;;;;;5056224;28;20190;-36
2023/01/21 07:20:03;;;;;;;29.60;23.30;;;-1.70;1.00;;;;;;5055675;28;20261;-36
2023/01/21 07:22:29;;;;;;;31.77;22.63;;;-1.60;99.90;;;;;;5055959;28;20221;-37
2023/01/21 07:24:55;;;;;;;30.67;22.87;;;-1.50;99.90;;;;;;5055679;28;20521;-35
2023/01/21 07:27:20;;;;;;;26.47;20.10;;;-1.50;99.90;;;;;;5056215;28;20188;-36
2023/01/21 07:29:46;;;;;;;27.73;20.40;;;-1.40;1.00;;;;;;5055989;28;20196;-36
2023/01/21 07:32:12;;;;;;;26.90;19.17;;;-1.40;1.00;;;;;;5053217;28;20710;-37
2023/01/21 07:34:37;;;;;;;28.17;20.70;;;-1.30;1.00;;;;;;5057517;28;20188;-36
2023/01/21 07:37:03;;;;;;;27.73;19.93;;;-1.20;1.00;;;;;;5058656;28;20213;-37
2023/01/21 07:39:28;;;;;;;23.97;18.63;;;-1.10;1.00;;;;;;5058288;28;20620;-36
2023/01/21 07:41:54;;;;;;;27.10;20.10;;;-1.00;1.00;;;;;;5058490;28;20670;-37
2023/01/21 07:44:20;;;;;;;26.73;18.47;;;-1.00;1.00;;;;;;5057942;28;20173;-36
2023/01/21 07:46:45;;;;;;;28.23;19.00;;;-0.90;1.00;;;;;;5057693;28;20235;-36
2023/01/21 07:49:16;;;;;;;27.20;19.40;;;-0.90;1.00;;;;;;5058544;28;20248;-36
2023/01/21 07:51:43;;;;;;;25.80;19.43;;;-0.80;1.00;;;;;;5057557;28;20500;-36
2023/01/21 07:54:10;;;;;;;32.40;23.30;;;-0.70;1.00;;;;;;5058316;28;20423;-37
2023/01/21 07:56:36;;;;;;;31.63;23.40;;;-0.70;1.00;;;;;;5057152;28;20436;-37
2023/01/21 07:59:01;;;;;;;34.37;24.43;;;-0.60;1.00;;;;;;5057252;28;20850;-37
2023/01/21 08:01:29;;;;;;;28.77;20.63;;;-0.60;1.00;;;;;;5056260;28;20264;-41
2023/01/21 08:03:56;;;;;;;33.83;22.73;;;-0.50;1.00;;;;;;5058243;28;20280;-37
2023/01/21 08:06:22;;;;;;;37.43;27.10;;;-0.40;1.00;;;;;;5059189;28;20415;-36
2023/01/21 08:08:47;;;;;;;34.90;23.30;;;-0.40;1.00;;;;;;5060537;28;20465;-37
2023/01/21 08:11:13;;;;;;;30.10;22.27;;;-0.30;1.00;;;;;;5065797;28;20408;-37
2023/01/21 08:13:38;;;;;;;28.90;22.20;;;-0.30;1.00;;;;;;5062218;28;20213;-37
2023/01/21 08:16:05;;;;;;;35.33;23.20;;;-0.20;1.00;;;;;;5060493;28;20267;-37
2023/01/21 08:18:30;;;;;;;32.57;22.83;;;-0.20;1.00;;;;;;5059309;28;20324;-37
2023/01/21 08:20:57;;;;;;;34.90;23.60;;;-0.10;1.00;;;;;;5063254;28;20467;-36
2023/01/21 08:23:24;;;;;;;33.73;24.93;;;-0.10;1.00;;;;;;5065170;28;20209;-37
2023/01/21 08:25:49;;;;;;;37.13;25.63;;;0.00;1.00;;;;;;5065265;28;20408;-37
2023/01/21 08:28:15;;;;;;;37.37;25.57;;;0.10;99.90;;;;;;5068244;28;20435;-37
2023/01/21 08:30:40;;;;;;;34.60;23.47;;;0.10;99.90;;;;;;5067125;28;20181;-37
2023/01/21 08:33:06;;;;;;;32.47;22.97;;;0.20;99.90;;;;;;5067475;28;20217;-39
2023/01/21 08:35:32;;;;;;;31.07;22.87;;;0.30;99.90;;;;;;5064983;28;20437;-37
2023/01/21 08:37:57;;;;;;;30.53;23.50;;;0.40;99.90;;;;;;5065179;28;20177;-37
2023/01/21 08:40:25;;;;;;;28.60;20.80;;;0.50;99.90;;;;;;5063550;28;20191;-37
2023/01/21 08:42:51;;;;;;;30.40;23.47;;;0.60;99.90;;;;;;5060445;28;20281;-38
2023/01/21 08:45:17;;;;;;;33.13;23.73;;;0.70;99.90;;;;;;5061697;28;20408;-37
2023/01/21 08:47:43;;;;;;;5.53;4.20;;;0.80;99.90;;;;;;5062755;28;20432;-39
2023/01/21 08:50:11;;;;;;;22.33;13.50;;;1.70;99.90;;;;;;5062783;28;20240;-39
2023/01/21 08:52:36;;;;;;;31.80;17.70;;;4.60;1.00;;;;;;5060528;28;20256;-39
2023/01/21 08:55:02;;;;;;;27.70;18.30;;;6.10;1.00;;;;;;5059054;28;20543;-38
2023/01/21 08:57:28;;;;;;;40.47;24.80;;;7.30;1.00;;;;;;5058301;28;20585;-37
2023/01/21 08:59:53;;;;;;;38.33;26.70;;;7.70;1.00;;;;;;5058234;28;20257;-38
2023/01/21 09:02:19;;;;;;;38.20;27.03;;;7.40;1.00;;;;;;5057606;28;20217;-37
2023/01/21 09:04:45;;;;;;;33.00;27.17;;;6.70;1.00;;;;;;5059130;28;20181;-38
2023/01/21 09:07:11;;;;;;;35.53;28.27;;;6.10;1.00;;;;;;5058076;28;20174;-37
2023/01/21 09:09:36;;;;;;;35.67;27.67;;;5.50;1.00;;;;;;5057718;28;20405;-37
2023/01/21 09:12:05;;;;;;;37.63;28.70;;;5.10;99.90;;;;;;5040507;28;20281;-36
2023/01/21 09:14:31;;;;;;;35.50;27.60;;;4.70;99.90;;;;;;5056815;28;20226;-37
2023/01/21 09:16:57;;;;;;;36.60;27.07;;;4.40;99.90;;;;;;5055969;28;20472;-36
2023/01/21 09:19:23;;;;;;;34.80;26.30;;;4.20;1.00;;;;;;5056014;28;20240;-37
2023/01/21 09:21:51;;;;;;;30.33;25.50;;;4.00;99.90;;;;;;5055333;28;20310;-36
2023/01/21 09:24:17;;;;;;;34.57;25.50;;;3.90;33.40;;;;;;5060116;28;20416;-36
2023/01/21 09:26:43;;;;;;;34.53;25.80;;;3.80;99.90;;;;;;5058617;28;20793;-37
2023/01/21 09:29:09;;;;;;;31.30;23.53;;;3.80;99.90;;;;;;5056731;28;20415;-36
2023/01/21 09:31:35;;;;;;;31.87;23.17;;;3.80;1.00;;;;;;5052885;28;20194;-36
2023/01/21 09:34:04;;;;;;;30.07;21.20;;;3.80;99.90;;;;;;5051463;28;20431;-36
2023/01/21 09:36:31;;;;;;;29.97;21.33;;;3.80;1.00;;;;;;5054212;28;20423;-36
2023/01/21 09:38:58;;;;;;;27.17;20.07;;;3.90;99.90;;;;;;5037399;28;20758;-36
2023/01/21 09:41:38;;;;;;;25.00;20.63;;;4.00;99.90;;;;;;5055439;28;20424;-37
2023/01/21 09:44:21;;;;;;;29.40;23.07;;;4.00;1.00;;;;;;5057081;28;20451;-36
2023/01/21 09:46:59;;;;;;;28.60;22.50;;;4.10;1.00;;;;;;5055490;28;20824;-37
2023/01/21 09:49:29;;;;;;;23.50;19.10;;;4.10;1.00;;;;;;5054019;28;20482;-37
2023/01/21 09:52:20;;;;;;;26.43;19.30;;;4.30;99.90;;;;;;5057178;28;20788;-37
2023/01/21 09:54:45;;;;;;;23.87;18.77;;;4.40;99.90;;;;;;5055886;28;20423;-37
2023/01/21 09:57:24;;;;;;;25.00;18.43;;;4.50;99.90;;;;;;5054203;28;20534;-37
2023/01/21 09:59:56;;;;;;;27.53;20.60;;;4.50;99.90;;;;;;5055684;28;20588;-38
2023/01/21 10:02:36;;;;;;;24.00;19.13;;;4.60;99.90;;;;;;5056132;28;20483;-36
2023/01/21 10:05:09;;;;;;;22.13;9.83;;;4.60;86.90;;;;;;5054157;28;20459;-36
2023/01/21 10:07:42;;;;;;;27.47;16.53;;;5.20;99.90;;;;;;5054301;28;20878;-37
2023/01/21 10:10:21;;;;;;;105.23;58.43;;;8.80;1.00;;;;;;5055617;28;20804;-37
2023/01/21 10:13:21;;;;;;;64.63;35.13;;;10.70;99.90;;;;;;5055458;28;20452;-37
2023/01/21 10:15:53;;;;;;;58.60;32.77;;;11.80;99.90;;;;;;4973392;28;20435;-38
2023/01/21 10:18:24;;;;;;;47.50;28.20;;;13.10;99.90;;;;;;5036952;28;20469;-39
2023/01/21 10:21:02;;;;;;;40.33;26.17;;;14.00;23.40;;;;;;5037779;28;20422;-39
2023/01/21 10:23:43;;;;;;;34.40;24.33;;;14.50;99.90;;;;;;5054503;28;20487;-38
2023/01/21 10:26:11;;;;;;;24.37;19.10;;;14.50;1.00;;;;;;5052057;28;20676;-38
2023/01/21 10:28:53;;;;;;;21.60;17.40;;;13.60;1.00;;;;;;5110227;27;20560;-38
2023/01/21 10:31:27;;;;;;;20.90;17.27;;;12.30;1.00;;;;;;5109496;28;20487;-38
2023/01/21 10:33:53;;;;;;;17.87;15.97;;;11.10;1.00;;;;;;5111818;28;20445;-37
2023/01/21 10:36:47;;;;;;;16.63;14.67;;;10.00;1.00;;;;;;5111514;28;20409;-37
2023/01/21 10:39:18;;;;;;;19.63;15.60;;;9.00;1.00;;;;;;5109615;28;20417;-37
2023/01/21 10:42:08;;;;;;;18.30;15.80;;;8.30;1.00;;;;;;5108265;28;20430;-37
2023/01/21 10:44:55;;;;;;;20.60;15.47;;;7.70;1.00;;;;;;5110827;28;20413;-36
2023/01/21 10:47:55;;;;;;;21.03;16.80;;;7.10;1.00;;;;;;5111274;28;20935;-37
2023/01/21 10:50:44;;;;;;;21.63;17.20;;;6.70;1.00;;;;;;5109670;28;20449;-37
2023/01/21 10:53:34;;;;;;;18.57;14.67;;;6.30;1.00;;;;;;5109185;28;20496;-36
2023/01/21 10:56:24;;;;;;;23.40;16.37;;;6.00;1.00;;;;;;5109070;28;20418;-37
2023/01/21 10:59:00;;;;;;;21.50;17.47;;;5.60;1.00;;;;;;5106920;28;20872;-37
2023/01/21 11:01:31;;;;;;;20.03;17.20;;;5.40;1.00;;;;;;5109417;28;20458;-36
2023/01/21 11:03:59;;;;;;;23.97;16.30;;;5.20;1.00;;;;;;5108336;28;20812;-35
2023/01/21 11:06:25;;;;;;;18.70;16.60;;;5.10;1.00;;;;;;5108866;28;20500;-36
2023/01/21 11:08:55;;;;;;;22.17;16.40;;;4.90;1.00;;;;;;5107932;28;20544;-37
2023/01/21 11:11:27;;;;;;;22.33;18.67;;;4.80;1.00;;;;;;5094198;28;20625;-36
2023/01/21 11:13:54;;;;;;;25.13;19.40;;;4.80;1.00;;;;;;5091489;28;20399;-37
2023/01/21 11:16:43;;;;;;;21.67;17.27;;;4.70;1.00;;;;;;5102619;28;20473;-37
2023/01/21 11:19:15;;;;;;;22.73;16.97;;;4.70;1.00;;;;;;5110162;28;20413;-37
2023/01/21 11:21:41;;;;;;;21.20;17.40;;;4.70;1.00;;;;;;5110226;28;20413;-36
2023/01/21 11:24:21;;;;;;;22.33;17.77;;;4.60;1.00;;;;;;5111223;28;20409;-36
2023/01/21 11:26:55;;;;;;;20.80;16.83;;;4.60;1.00;;;;;;5111669;28;20481;-36
2023/01/21 11:29:22;;;;;;;20.30;16.63;;;4.50;1.00;;;;;;5112583;28;20800;-37
2023/01/21 11:31:50;;;;;;;21.30;16.50;;;4.40;1.00;;;;;;5112165;28;20820;-37
2023/01/21 11:34:21;;;;;;;19.83;15.77;;;4.30;1.00;;;;;;5108580;28;20421;-37
2023/01/21 11:37:06;;;;;;;21.10;16.30;;;4.30;1.00;;;;;;5107145;28;20452;-37
2023/01/21 11:39:40;;;;;;;22.37;17.53;;;4.30;1.00;;;;;;5095742;28;20406;-37
2023/01/21 11:42:12;;;;;;;21.00;17.83;;;4.20;1.00;;;;;;5094394;28;20888;-36
2023/01/21 11:45:04;;;;;;;21.27;16.80;;;4.20;1.00;;;;;;5093148;28;20439;-37
2023/01/21 11:47:46;;;;;;;20.60;15.57;;;4.10;1.00;;;;;;5094860;28;20927;-37
2023/01/21 11:50:27;;;;;;;24.70;17.77;;;4.10;1.00;;;;;;5096796;28;20414;-36
2023/01/21 11:53:13;;;;;;;23.30;17.23;;;4.00;1.00;;;;;;5097124;28;20429;-37
2023/01/21 11:55:38;;;;;;;25.57;18.33;;;4.00;1.00;;;;;;5097155;28;20410;-36
2023/01/21 11:58:05;;;;;;;23.57;19.40;;;4.00;1.00;;;;;;5098237;28;20440;-36
2023/01/21 12:00:37;;;;;;;22.03;17.50;;;4.00;1.00;;;;;;5097379;28;20176;-37
2023/01/21 12:03:04;;;;;;;24.03;18.33;;;4.10;1.00;;;;;;5096772;28;20426;-36
2023/01/21 12:05:39;;;;;;;24.20;17.20;;;4.10;1.00;;;;;;5096845;28;20501;-37
2023/01/21 12:08:05;;;;;;;20.37;16.10;;;4.10;1.00;;;;;;5097622;28;20461;-36
2023/01/21 12:10:34;;;;;;;22.57;16.07;;;4.20;1.00;;;;;;5096775;28;20761;-38
2023/01/21 12:13:13;;;;;;;20.73;16.93;;;4.20;1.00;;;;;;5096097;28;20495;-37
2023/01/21 12:16:02;;;;;;;21.50;16.77;;;4.20;1.00;;;;;;5097424;28;20406;-36
2023/01/21 12:18:51;;;;;;;24.40;16.70;;;4.10;1.00;;;;;;5095600;28;20444;-36
2023/01/21 12:21:28;;;;;;;17.50;15.60;;;4.10;1.00;;;;;;5095588;28;20673;-36
2023/01/21 12:24:07;;;;;;;20.47;16.00;;;4.10;1.00;;;;;;5096458;28;20434;-36
2023/01/21 12:26:55;;;;;;;19.73;15.47;;;4.00;1.00;;;;;;5095671;28;20445;-36
2023/01/21 12:29:33;;;;;;;17.10;13.73;;;4.10;1.00;;;;;;5095719;28;20415;-36
2023/01/21 12:32:32;;;;;;;20.30;14.57;;;4.10;1.00;;;;;;5095137;28;20703;-37
2023/01/21 12:35:16;;;;;;;20.87;16.40;;;4.10;1.00;;;;;;5094744;28;20410;-37
2023/01/21 12:37:48;;;;;;;19.90;15.87;;;4.00;1.00;;;;;;5096647;28;20513;-37
2023/01/21 12:40:19;;;;;;;20.10;15.83;;;4.00;1.00;;;;;;5095730;28;20407;-37
2023/01/21 12:42:48;;;;;;;20.40;17.27;;;3.90;1.00;;;;;;5095067;28;20473;-36
2023/01/21 12:45:22;;;;;;;17.77;15.20;;;3.90;1.00;;;;;;5093801;28;20430;-37
2023/01/21 12:47:57;;;;;;;19.63;15.23;;;3.80;1.00;;;;;;5094193;28;20656;-36
2023/01/21 12:50:31;;;;;;;20.17;15.53;;;3.70;1.00;;;;;;5095615;28;20414;-37
2023/01/21 12:53:18;;;;;;;20.13;16.47;;;3.60;1.00;;;;;;5095520;28;20483;-43
2023/01/21 12:56:06;;;;;;;22.23;15.73;;;3.60;1.00;;;;;;5097000;28;20838;-37
2023/01/21 12:58:37;;;;;;;18.07;14.17;;;3.50;1.00;;;;;;5096754;28;20422;-37
2023/01/21 13:01:08;;;;;;;19.27;15.43;;;3.40;6.80;;;;;;5095142;28;20406;-36
2023/01/21 13:03:58;;;;;;;20.83;16.30;;;3.50;29.40;;;;;;5094084;28;20843;-37